Time;durP1;ratioP1;P1;durP2;ratioP2;P2;SDS_P1;SDS_P2;PMS_P1;PMS_P2;Temp;Humidity;BMP_temperature;BMP_pressure;BME280_temperature;BME280_humidity;BME280_pressure;Samples;Min_cycle;Max_cycle;Signal;HPM_P1;HPM_P2
2021/06/27 00:01:02;;;;;;;3.00;2.80;;;15.90;99.90;;;15.50;100.00;100881.19;4134526;28;20138;-67
2021/06/27 00:03:04;;;;;;;6.13;3.42;;;15.90;99.90;;;15.43;100.00;100880.25;4135516;28;20030;-67
2021/06/27 00:05:10;;;;;;;7.25;4.00;;;15.90;99.90;;;15.43;100.00;100882.91;4135669;28;20022;-67
2021/06/27 00:07:11;;;;;;;10.48;3.35;;;15.80;99.90;;;15.45;100.00;100883.53;4135472;28;20030;-67
2021/06/27 00:09:12;;;;;;;4.32;3.63;;;15.80;99.90;;;15.61;100.00;100885.22;4135688;28;20022;-69
2021/06/27 00:11:15;;;;;;;4.68;3.50;;;15.90;99.90;;;15.65;100.00;100877.69;4135680;28;20023;-68
2021/06/27 00:13:16;;;;;;;3.92;2.95;;;16.00;99.90;;;15.56;100.00;100878.81;4135639;28;20031;-68
2021/06/27 00:15:38;;;;;;;4.22;3.05;;;15.90;99.90;;;15.46;100.00;100879.88;4135303;28;20065;-68
2021/06/27 00:17:40;;;;;;;3.95;3.58;;;15.90;99.90;;;15.62;100.00;100875.41;4120885;28;20118;-68
2021/06/27 00:19:41;;;;;;;5.68;3.25;;;15.90;99.90;;;15.50;100.00;100859.91;4135534;28;20474;-67
2021/06/27 00:21:42;;;;;;;3.20;2.90;;;15.90;99.90;;;15.48;100.00;100866.44;4135405;28;20026;-67
2021/06/27 00:23:48;;;;;;;4.45;3.58;;;15.90;99.90;;;15.45;100.00;100867.59;4134193;28;20037;-67
2021/06/27 00:25:51;;;;;;;4.10;3.42;;;15.90;99.90;;;15.42;100.00;100869.78;4150406;28;20064;-68
2021/06/27 00:27:52;;;;;;;3.38;3.08;;;15.90;99.90;;;15.47;100.00;100859.47;4134196;28;20109;-68
2021/06/27 00:29:53;;;;;;;2.70;2.50;;;15.90;99.90;;;15.45;100.00;100859.63;4135321;28;20062;-68
2021/06/27 00:31:54;;;;;;;4.13;3.10;;;15.90;99.90;;;15.50;100.00;100870.53;4135533;28;20034;-67
2021/06/27 00:33:55;;;;;;;3.53;3.22;;;15.90;99.90;;;15.50;100.00;100880.38;4135226;28;20030;-67
2021/06/27 00:35:56;;;;;;;6.13;3.65;;;15.90;99.90;;;15.23;100.00;100841.91;4134255;28;20524;-68
2021/06/27 00:37:57;;;;;;;3.17;2.78;;;15.90;99.90;;;15.33;100.00;100849.63;4134069;28;20038;-68
2021/06/27 00:39:59;;;;;;;7.97;3.53;;;15.90;99.90;;;15.40;100.00;100861.19;4134289;28;20023;-67
2021/06/27 00:42:00;;;;;;;7.65;4.75;;;15.90;99.90;;;15.35;100.00;100864.38;4117938;28;20197;-67
2021/06/27 00:44:01;;;;;;;4.18;3.53;;;15.90;99.90;;;15.38;100.00;100847.25;4135244;28;20620;-68
2021/06/27 00:46:02;;;;;;;5.35;4.03;;;15.90;99.90;;;15.44;100.00;100849.97;4134175;28;20043;-67
2021/06/27 00:48:05;;;;;;;6.15;3.97;;;15.90;99.90;;;15.54;100.00;100841.75;4135091;28;20033;-67
2021/06/27 00:50:24;;;;;;;4.53;4.07;;;15.90;99.90;;;15.60;100.00;100849.00;4134244;28;20049;-67
2021/06/27 00:52:25;;;;;;;5.85;4.70;;;15.90;99.90;;;15.62;100.00;100835.53;4135839;28;20265;-67
2021/06/27 00:54:26;;;;;;;4.95;4.22;;;16.00;99.90;;;15.63;100.00;100831.84;4137192;28;20026;-67
2021/06/27 00:56:27;;;;;;;4.82;3.60;;;16.00;99.90;;;15.54;100.00;100832.94;4138287;28;20029;-67
2021/06/27 00:58:36;;;;;;;4.35;3.95;;;15.90;99.90;;;15.68;100.00;100829.47;4136975;28;20030;-67
2021/06/27 01:00:41;;;;;;;4.57;4.18;;;16.00;99.90;;;15.54;100.00;100820.50;4153269;28;20029;-68
2021/06/27 01:02:43;;;;;;;3.58;3.28;;;16.00;99.90;;;15.68;100.00;100824.94;4137817;28;20054;-67
2021/06/27 01:04:44;;;;;;;10.00;4.85;;;16.10;99.90;;;15.38;100.00;100818.81;4136852;28;20194;-67
2021/06/27 01:06:45;;;;;;;13.60;4.53;;;16.00;99.90;;;15.28;100.00;100823.63;4137804;28;20486;-68
2021/06/27 01:08:46;;;;;;;5.55;4.25;;;16.00;99.90;;;15.22;100.00;100836.81;4136656;28;20094;-68
2021/06/27 01:10:48;;;;;;;6.10;3.40;;;15.90;99.90;;;15.38;100.00;100839.28;4137948;28;20046;-67
2021/06/27 01:12:50;;;;;;;4.68;4.28;;;15.80;99.90;;;15.31;100.00;100841.84;4137890;28;20034;-67
2021/06/27 01:14:52;;;;;;;4.32;3.92;;;15.80;99.90;;;15.46;100.00;100825.88;4137743;28;20014;-67
2021/06/27 01:16:53;;;;;;;5.53;3.20;;;15.90;99.90;;;15.43;100.00;100829.75;4136571;28;20026;-67
2021/06/27 01:18:54;;;;;;;5.38;4.40;;;15.90;99.90;;;15.32;100.00;100818.75;4136504;28;20038;-67
2021/06/27 01:20:56;;;;;;;4.70;3.78;;;15.90;99.90;;;15.25;100.00;100818.66;4152952;28;20038;-67
2021/06/27 01:23:01;;;;;;;9.90;4.43;;;15.80;99.90;;;15.32;100.00;100834.72;4137863;28;20026;-67
2021/06/27 01:25:03;;;;;;;4.80;4.03;;;15.80;99.90;;;15.28;100.00;100822.78;4137609;28;20515;-67
2021/06/27 01:27:04;;;;;;;5.63;4.10;;;15.80;99.90;;;15.19;100.00;100816.75;4136460;28;20034;-67
2021/06/27 01:29:05;;;;;;;9.90;4.75;;;15.80;99.90;;;15.11;100.00;100822.16;4137647;28;20037;-67
2021/06/27 01:31:08;;;;;;;8.32;4.57;;;15.70;99.90;;;15.10;100.00;100817.84;4137590;28;20033;-67
2021/06/27 01:33:17;;;;;;;6.60;4.07;;;15.70;99.90;;;15.22;100.00;100804.91;4137131;28;20128;-68
2021/06/27 01:35:21;;;;;;;4.05;3.58;;;15.70;99.90;;;15.32;100.00;100802.81;4137485;28;20023;-68
2021/06/27 01:37:22;;;;;;;4.28;3.88;;;15.70;99.90;;;15.41;100.00;100799.84;4137620;28;20038;-68
2021/06/27 01:39:23;;;;;;;6.72;4.43;;;15.70;99.90;;;15.34;100.00;100796.28;4137454;28;20586;-68
2021/06/27 01:41:24;;;;;;;4.60;3.80;;;15.80;99.90;;;15.39;100.00;100798.38;4119843;28;20054;-67
2021/06/27 01:43:25;;;;;;;4.70;4.22;;;15.80;99.90;;;15.48;100.00;100792.81;4136131;28;20102;-67
2021/06/27 01:45:27;;;;;;;7.15;3.33;;;15.80;99.90;;;15.43;100.00;100784.56;4136210;28;20085;-67
2021/06/27 01:47:29;;;;;;;6.30;4.03;;;15.80;99.90;;;15.46;100.00;100773.53;4137185;28;20026;-67
2021/06/27 01:49:30;;;;;;;4.95;3.95;;;15.80;99.90;;;15.50;100.00;100755.41;4135841;28;20117;-67
2021/06/27 01:51:30;;;;;;;4.63;3.70;;;15.80;99.90;;;15.63;100.00;100758.22;4137334;28;20018;-67
2021/06/27 01:53:35;;;;;;;9.95;3.90;;;15.90;99.90;;;15.63;100.00;100747.56;4137157;28;20026;-67
2021/06/27 01:55:36;;;;;;;11.18;4.63;;;16.00;99.90;;;15.40;100.00;100746.88;4135982;28;20041;-67
2021/06/27 01:57:37;;;;;;;7.68;4.10;;;16.00;99.90;;;15.24;100.00;100737.28;4135837;28;20030;-67
2021/06/27 01:59:38;;;;;;;5.30;3.80;;;15.90;99.90;;;15.24;100.00;100763.03;4137201;28;20367;-67
2021/06/27 02:01:40;;;;;;;20.45;4.90;;;15.80;99.90;;;15.12;100.00;100753.88;4135973;28;20041;-67
2021/06/27 02:03:41;;;;;;;43.95;6.55;;;15.80;99.90;;;15.13;100.00;100759.03;4151323;28;20032;-67
2021/06/27 02:05:42;;;;;;;4.75;3.78;;;15.80;99.90;;;15.15;100.00;100764.13;4151836;28;20080;-67
2021/06/27 02:07:43;;;;;;;9.77;4.38;;;15.70;99.90;;;15.18;100.00;100764.59;4135828;28;20030;-67
2021/06/27 02:09:44;;;;;;;11.07;4.63;;;15.70;99.90;;;15.13;100.00;100764.34;4135753;28;20037;-67
2021/06/27 02:11:45;;;;;;;12.77;3.95;;;15.70;99.90;;;15.13;100.00;100767.00;4136953;28;20061;-67
2021/06/27 02:13:49;;;;;;;38.88;5.38;;;15.60;99.90;;;15.09;100.00;100771.00;4136805;28;20034;-67
2021/06/27 02:15:49;;;;;;;4.10;3.55;;;15.60;99.90;;;15.11;100.00;100770.84;4136969;28;20030;-67
2021/06/27 02:18:10;;;;;;;4.10;3.80;;;15.60;99.90;;;15.17;100.00;100752.31;4135251;28;20065;-67
2021/06/27 02:20:12;;;;;;;3.88;3.47;;;15.60;99.90;;;15.32;100.00;100745.13;4136713;28;20072;-68
2021/06/27 02:22:13;;;;;;;4.50;3.40;;;15.60;99.90;;;15.36;100.00;100741.09;4135772;28;20262;-67
2021/06/27 02:24:14;;;;;;;2.83;2.63;;;15.70;99.90;;;15.32;100.00;100741.69;4136772;28;20038;-67
2021/06/27 02:26:15;;;;;;;7.55;3.75;;;15.70;99.90;;;15.28;100.00;100735.91;4136723;28;20052;-67
2021/06/27 02:28:17;;;;;;;10.98;4.28;;;15.70;99.90;;;15.29;100.00;100739.41;4135405;28;20438;-67
2021/06/27 02:30:18;;;;;;;10.57;3.67;;;15.70;99.90;;;15.25;100.00;100749.56;4135462;28;20058;-68
2021/06/27 02:32:19;;;;;;;5.60;3.97;;;15.70;99.90;;;15.31;100.00;100748.00;4136697;28;20025;-67
2021/06/27 02:34:21;;;;;;;2.75;2.55;;;15.70;99.90;;;15.16;100.00;100748.03;4136376;28;20030;-68
2021/06/27 02:36:22;;;;;;;14.50;4.55;;;15.60;99.90;;;15.07;100.00;100741.16;4136474;28;20049;-67
2021/06/27 02:38:23;;;;;;;4.75;4.30;;;15.60;99.90;;;15.17;100.00;100751.50;4136822;28;20470;-67
2021/06/27 02:40:24;;;;;;;12.98;4.75;;;15.60;99.90;;;15.19;100.00;100739.69;4136656;28;20498;-67
2021/06/27 02:42:26;;;;;;;5.28;3.72;;;15.60;99.90;;;15.23;100.00;100732.16;4136627;28;20026;-67
2021/06/27 02:44:27;;;;;;;5.38;3.75;;;15.60;99.90;;;15.27;100.00;100750.19;4135344;28;20023;-67
2021/06/27 02:46:28;;;;;;;7.82;4.20;;;15.70;99.90;;;15.25;100.00;100754.88;4136619;28;20105;-67
2021/06/27 02:48:29;;;;;;;6.25;3.80;;;15.70;99.90;;;15.24;100.00;100755.88;4136312;28;20027;-67
2021/06/27 02:50:30;;;;;;;3.97;3.58;;;15.70;99.90;;;15.20;100.00;100749.28;4135360;28;20037;-67
2021/06/27 02:52:31;;;;;;;6.43;3.83;;;15.70;99.90;;;15.28;100.00;100740.41;4136489;28;20398;-67
2021/06/27 02:54:31;;;;;;;5.03;3.97;;;15.70;99.90;;;15.27;100.00;100725.44;4135576;28;20033;-67
2021/06/27 02:56:33;;;;;;;4.00;3.70;;;15.70;99.90;;;15.28;100.00;100716.47;4135368;28;20062;-68
2021/06/27 02:58:44;;;;;;;4.50;3.90;;;15.70;99.90;;;15.49;100.00;100728.00;4135298;28;20595;-67
2021/06/27 03:00:45;;;;;;;3.75;2.88;;;15.80;99.90;;;15.33;100.00;100717.56;4136240;28;20105;-68
2021/06/27 03:02:46;;;;;;;7.30;4.05;;;15.80;99.90;;;15.28;100.00;100712.00;4136073;28;20509;-68
2021/06/27 03:04:47;;;;;;;8.85;5.05;;;15.80;99.90;;;15.44;100.00;100717.06;4136414;28;20026;-68
2021/06/27 03:06:48;;;;;;;20.42;5.32;;;15.80;99.90;;;15.35;100.00;100723.50;4135086;28;20101;-68
2021/06/27 03:08:49;;;;;;;20.40;4.82;;;15.80;99.90;;;15.27;100.00;100714.81;4136206;28;20088;-67
2021/06/27 03:10:50;;;;;;;10.45;4.55;;;15.70;99.90;;;15.26;100.00;100718.50;4118870;28;20114;-68
2021/06/27 03:12:52;;;;;;;18.85;6.00;;;15.70;99.90;;;15.21;100.00;100721.72;4136339;28;20031;-67
2021/06/27 03:14:53;;;;;;;5.45;3.97;;;15.70;99.90;;;15.26;100.00;100724.63;4134201;28;20027;-67
2021/06/27 03:16:54;;;;;;;8.43;4.60;;;15.70;99.90;;;15.24;100.00;100724.00;4136158;28;20088;-68
2021/06/27 03:18:54;;;;;;;5.05;3.80;;;15.70;99.90;;;15.18;100.00;100715.94;4150893;28;20053;-68
2021/06/27 03:20:56;;;;;;;6.88;4.32;;;15.70;99.90;;;15.13;100.00;100705.06;4135051;28;20034;-68
2021/06/27 03:22:57;;;;;;;9.10;4.88;;;15.60;99.90;;;15.10;100.00;100708.09;4134890;28;20030;-67
2021/06/27 03:24:58;;;;;;;5.65;4.18;;;15.60;99.90;;;15.16;100.00;100717.97;4134736;28;20035;-67
2021/06/27 03:26:59;;;;;;;6.72;4.75;;;15.60;99.90;;;15.15;100.00;100711.81;4134883;28;20555;-68
2021/06/27 03:29:00;;;;;;;5.95;4.32;;;15.60;99.90;;;15.10;100.00;100708.91;4136126;28;20030;-67
2021/06/27 03:31:01;;;;;;;4.32;3.70;;;15.60;99.90;;;15.18;100.00;100718.59;4134892;28;20025;-67
2021/06/27 03:33:02;;;;;;;5.60;3.97;;;15.70;99.90;;;15.16;100.00;100718.78;4150701;28;20089;-67
2021/06/27 03:35:05;;;;;;;4.35;3.95;;;15.70;99.90;;;15.27;100.00;100717.47;4134851;28;20029;-67
2021/06/27 03:37:06;;;;;;;5.18;4.57;;;15.70;99.90;;;15.24;100.00;100712.53;4134846;28;20031;-67
2021/06/27 03:39:10;;;;;;;5.90;4.85;;;15.70;99.90;;;15.23;100.00;100698.41;4150923;28;20120;-68
2021/06/27 03:41:11;;;;;;;6.38;5.18;;;15.70;99.90;;;15.24;100.00;100702.72;4134609;28;20520;-68
2021/06/27 03:43:12;;;;;;;5.97;3.97;;;15.70;99.90;;;15.31;100.00;100698.31;4135939;28;20030;-68
2021/06/27 03:45:14;;;;;;;7.38;4.82;;;15.70;99.90;;;15.24;100.00;100692.09;4135977;28;20101;-67
2021/06/27 03:47:15;;;;;;;16.38;6.50;;;15.70;99.90;;;15.22;100.00;100695.97;4134721;28;20030;-68
2021/06/27 03:49:17;;;;;;;6.70;5.35;;;15.70;99.90;;;15.14;100.00;100688.91;4134328;28;20081;-67
2021/06/27 03:51:18;;;;;;;4.85;4.38;;;15.70;99.90;;;15.25;100.00;100701.72;4151036;28;20029;-67
2021/06/27 03:53:19;;;;;;;20.90;5.97;;;15.70;99.90;;;15.24;100.00;100705.38;4151054;28;20037;-68
2021/06/27 03:55:20;;;;;;;9.18;5.20;;;15.70;99.90;;;15.19;100.00;100702.47;4135895;28;20486;-68
2021/06/27 03:57:21;;;;;;;5.78;5.18;;;15.70;99.90;;;15.30;100.00;100704.66;4134576;28;20101;-67
2021/06/27 03:59:22;;;;;;;15.48;5.75;;;15.70;99.90;;;15.28;100.00;100696.03;4151006;28;20089;-68
2021/06/27 04:01:23;;;;;;;6.80;4.68;;;15.80;99.90;;;15.28;100.00;100698.69;4135618;28;20034;-67
2021/06/27 04:03:24;;;;;;;4.10;3.70;;;15.70;99.90;;;15.29;100.00;100708.31;4135549;28;20030;-68
2021/06/27 04:05:25;;;;;;;11.20;6.03;;;15.70;99.90;;;15.23;100.00;100701.06;4135793;28;20041;-68
2021/06/27 04:07:26;;;;;;;10.45;5.55;;;15.70;99.90;;;15.20;100.00;100703.31;4134630;28;20514;-67
2021/06/27 04:09:27;;;;;;;5.38;4.38;;;15.70;99.90;;;15.25;100.00;100704.38;4134642;28;20034;-67
2021/06/27 04:11:28;;;;;;;8.15;4.13;;;15.70;99.90;;;15.30;100.00;100711.78;4135813;28;20033;-67
2021/06/27 04:13:32;;;;;;;7.60;4.93;;;15.70;99.90;;;15.30;100.00;100704.66;4135685;28;20084;-67
2021/06/27 04:15:33;;;;;;;;;;;15.70;99.90;;;15.29;100.00;100697.66;4136147;28;20026;-68
2021/06/27 04:17:35;;;;;;;6.00;4.70;;;15.80;99.90;;;15.24;100.00;100689.44;4135607;28;19913;-68
2021/06/27 04:19:36;;;;;;;4.80;4.30;;;15.80;99.90;;;15.43;100.00;100702.16;4134495;28;20030;-67
2021/06/27 04:21:36;;;;;;;4.43;3.97;;;15.80;99.90;;;15.34;100.00;100697.94;4135658;28;20061;-67
2021/06/27 04:23:39;;;;;;;4.10;3.45;;;15.80;99.90;;;15.31;100.00;100703.66;4134486;28;20410;-68
2021/06/27 04:25:41;;;;;;;10.95;4.60;;;15.80;99.90;;;15.26;100.00;100705.22;4136386;28;20454;-67
2021/06/27 04:27:41;;;;;;;5.50;3.30;;;15.80;99.90;;;15.26;100.00;100703.34;4137555;28;20038;-67
2021/06/27 04:29:42;;;;;;;4.13;3.72;;;15.70;99.90;;;15.33;100.00;100696.28;4138741;28;20022;-67
2021/06/27 04:31:44;;;;;;;7.43;3.78;;;15.70;99.90;;;15.37;100.00;100694.09;4138956;28;20058;-68
2021/06/27 04:33:45;;;;;;;5.38;4.30;;;15.80;99.90;;;15.29;100.00;100687.03;4138541;28;20019;-68
2021/06/27 04:35:46;;;;;;;7.25;4.80;;;15.80;99.90;;;15.38;100.00;100685.13;4137569;28;20053;-68
2021/06/27 04:37:47;;;;;;;7.07;4.55;;;15.80;99.90;;;15.38;100.00;100691.22;4137584;28;20034;-68
2021/06/27 04:39:49;;;;;;;12.88;5.28;;;15.80;99.90;;;15.39;100.00;100692.88;4138680;28;20062;-67
2021/06/27 04:41:50;;;;;;;5.35;4.40;;;15.90;99.90;;;15.38;100.00;100696.53;4137333;28;20522;-67
2021/06/27 04:43:50;;;;;;;16.92;4.75;;;15.80;99.90;;;15.36;100.00;100701.25;4153613;28;20089;-67
2021/06/27 04:45:52;;;;;;;5.00;3.55;;;15.80;99.90;;;15.35;100.00;100696.91;4138583;28;20031;-67
2021/06/27 04:47:53;;;;;;;6.50;4.05;;;15.90;99.90;;;15.41;100.00;100701.50;4138095;28;20054;-68
2021/06/27 04:49:54;;;;;;;4.18;3.58;;;15.90;99.90;;;15.40;100.00;100697.19;4138612;28;20149;-67
2021/06/27 04:51:55;;;;;;;7.03;3.58;;;15.90;99.90;;;15.39;100.00;100700.03;4138544;28;20058;-68
2021/06/27 04:53:56;;;;;;;9.27;4.13;;;15.90;99.90;;;15.40;100.00;100686.56;4138483;28;20022;-67
2021/06/27 04:55:58;;;;;;;4.28;3.35;;;15.90;99.90;;;15.42;100.00;100686.38;4138484;28;20612;-68
2021/06/27 04:57:59;;;;;;;4.88;3.92;;;15.90;99.90;;;15.54;100.00;100678.75;4138485;28;20067;-68
2021/06/27 05:00:03;;;;;;;3.97;3.45;;;15.90;99.90;;;15.58;100.00;100680.84;4138448;28;20034;-67
2021/06/27 05:02:04;;;;;;;5.90;4.03;;;16.00;99.90;;;15.59;100.00;100681.69;4153291;28;20593;-68
2021/06/27 05:04:05;;;;;;;4.00;3.65;;;16.00;99.90;;;15.73;100.00;100683.44;4138055;28;20038;-68
2021/06/27 05:06:06;;;;;;;7.30;4.28;;;16.20;99.90;;;15.58;100.00;100688.00;4137079;28;20081;-68
2021/06/27 05:08:07;;;;;;;3.90;3.13;;;16.20;99.90;;;15.67;100.00;100684.19;4138174;28;20467;-68
2021/06/27 05:10:08;;;;;;;10.18;4.68;;;16.20;99.90;;;15.65;100.00;100683.56;4137065;28;20022;-68
2021/06/27 05:12:09;;;;;;;4.78;3.95;;;16.30;99.90;;;15.73;100.00;100673.63;4138131;28;20504;-67
2021/06/27 05:14:10;;;;;;;4.03;3.30;;;16.30;99.90;;;15.90;100.00;100682.16;4138273;28;20101;-68
2021/06/27 05:16:11;;;;;;;3.97;3.58;;;16.40;99.90;;;15.97;100.00;100675.88;4138202;28;20031;-68
2021/06/27 05:18:12;;;;;;;5.05;3.35;;;16.50;99.90;;;15.97;100.00;100677.72;4136619;28;20041;-67
2021/06/27 05:20:13;;;;;;;3.50;3.20;;;16.50;99.90;;;15.95;100.00;100683.22;4120629;28;20129;-68
2021/06/27 05:22:14;;;;;;;4.28;3.67;;;16.60;99.90;;;15.97;100.00;100683.88;4136987;28;20077;-68
2021/06/27 05:24:15;;;;;;;5.10;3.47;;;16.60;99.90;;;15.96;100.00;100681.38;4136941;28;20398;-68
2021/06/27 05:26:16;;;;;;;4.43;2.85;;;16.60;99.90;;;16.06;100.00;100692.53;4169366;28;20128;-68
2021/06/27 05:28:17;;;;;;;4.05;3.67;;;16.70;99.90;;;16.04;100.00;100681.25;4137817;28;20081;-68
2021/06/27 05:30:18;;;;;;;3.35;2.85;;;16.80;99.90;;;16.10;100.00;100685.78;4136849;28;20026;-68
2021/06/27 05:32:19;;;;;;;4.13;3.72;;;16.80;99.90;;;16.09;100.00;100686.81;4136356;28;20407;-68
2021/06/27 05:34:20;;;;;;;4.60;3.50;;;16.80;99.90;;;16.20;100.00;100686.28;4138066;28;20113;-68
2021/06/27 05:36:21;;;;;;;3.72;3.42;;;16.90;99.90;;;16.12;100.00;100678.47;4137633;28;20034;-68
2021/06/27 05:38:22;;;;;;;3.67;3.30;;;16.80;99.90;;;16.28;100.00;100678.16;4135771;28;20107;-68
2021/06/27 05:40:23;;;;;;;14.02;4.15;;;16.90;99.90;;;16.26;100.00;100663.38;4137630;28;20032;-68
2021/06/27 05:42:24;;;;;;;6.53;3.40;;;16.90;99.90;;;16.29;100.00;100669.16;4136449;28;20383;-68
2021/06/27 05:44:25;;;;;;;3.35;3.05;;;16.90;99.90;;;16.35;100.00;100667.53;4136283;28;20040;-68
2021/06/27 05:46:26;;;;;;;4.93;3.03;;;16.90;99.90;;;16.37;100.00;100671.66;4137658;28;20022;-68
2021/06/27 05:48:27;;;;;;;3.47;3.10;;;17.00;99.90;;;16.44;100.00;100671.69;4137385;28;20022;-68
2021/06/27 05:50:28;;;;;;;5.75;3.80;;;17.10;99.90;;;16.41;100.00;100662.28;4137603;28;20081;-68
2021/06/27 05:52:29;;;;;;;5.32;3.78;;;17.20;99.90;;;16.46;100.00;100665.16;4136234;28;20037;-68
2021/06/27 05:54:30;;;;;;;4.82;3.97;;;17.20;99.90;;;16.57;100.00;100667.31;4137585;28;20085;-68
2021/06/27 05:56:30;;;;;;;4.35;3.95;;;17.30;99.90;;;16.65;100.00;100657.50;4137568;28;20030;-68
2021/06/27 05:58:31;;;;;;;4.93;3.65;;;17.40;99.90;;;16.75;100.00;100663.31;4136375;28;20022;-68
2021/06/27 06:00:32;;;;;;;5.35;4.03;;;17.50;99.90;;;16.68;100.00;100654.44;4136201;28;20026;-68
2021/06/27 06:02:33;;;;;;;5.72;3.83;;;17.50;99.90;;;16.79;100.00;100662.69;4136030;28;20588;-68
2021/06/27 06:04:34;;;;;;;6.22;4.03;;;17.60;99.90;;;16.88;100.00;100648.19;4136301;28;20066;-68
2021/06/27 06:06:35;;;;;;;6.63;3.95;;;17.70;99.90;;;16.92;100.00;100651.28;4136132;28;20124;-68
2021/06/27 06:08:41;;;;;;;5.35;4.63;;;17.80;99.90;;;16.97;100.00;100640.84;4152193;28;20161;-68
2021/06/27 06:10:41;;;;;;;5.68;4.35;;;17.90;99.90;;;17.11;100.00;100646.00;4136289;28;20076;-68
2021/06/27 06:12:42;;;;;;;6.75;3.92;;;18.00;99.90;;;17.15;100.00;100643.75;4137365;28;20098;-68
2021/06/27 06:14:43;;;;;;;4.22;3.65;;;18.10;99.90;;;17.23;100.00;100645.44;4136005;28;20583;-68
2021/06/27 06:16:47;;;;;;;6.32;3.47;;;18.20;99.90;;;17.34;100.00;100651.00;4135915;28;20045;-68
2021/06/27 06:18:49;;;;;;;7.10;3.55;;;18.30;99.90;;;17.25;100.00;100649.53;4135742;28;20026;-67
2021/06/27 06:20:50;;;;;;;7.05;3.42;;;18.20;99.90;;;17.10;100.00;100648.88;4135859;28;20502;-67
2021/06/27 06:22:51;;;;;;;5.57;3.10;;;18.20;99.90;;;17.10;100.00;100649.72;4135845;28;20061;-68
2021/06/27 06:24:52;;;;;;;5.22;2.60;;;18.10;99.90;;;16.98;100.00;100642.50;4135618;28;20106;-68
2021/06/27 06:26:53;;;;;;;3.75;2.40;;;18.00;99.90;;;17.01;100.00;100647.41;4136958;28;20027;-67
2021/06/27 06:28:54;;;;;;;4.82;3.08;;;17.90;99.90;;;17.00;100.00;100637.78;4136978;28;20517;-68
2021/06/27 06:30:55;;;;;;;6.95;3.40;;;17.90;99.90;;;16.98;100.00;100645.16;4136932;28;20121;-68
2021/06/27 06:32:56;;;;;;;4.10;3.28;;;17.90;99.90;;;17.00;100.00;100651.09;4136514;28;20080;-68
2021/06/27 06:34:57;;;;;;;5.30;3.50;;;17.90;99.90;;;16.93;100.00;100631.63;4136869;28;20426;-68
2021/06/27 06:36:58;;;;;;;3.40;2.65;;;17.90;99.90;;;17.04;100.00;100633.69;4151901;28;20501;-68
2021/06/27 06:38:59;;;;;;;4.43;3.08;;;17.90;99.90;;;17.15;100.00;100649.09;4136824;28;20485;-68
2021/06/27 06:41:00;;;;;;;11.63;3.17;;;18.00;99.90;;;17.30;100.00;100657.75;4135368;28;20085;-68
2021/06/27 06:43:01;;;;;;;5.50;3.15;;;18.10;99.90;;;17.30;100.00;100657.75;4136629;28;20038;-68
2021/06/27 06:45:04;;;;;;;4.45;3.10;;;18.20;99.90;;;17.43;100.00;100646.28;4135514;28;20034;-68
2021/06/27 06:47:05;;;;;;;4.90;2.88;;;18.30;99.90;;;17.59;100.00;100656.63;4135382;28;20038;-68
2021/06/27 06:49:06;;;;;;;3.50;2.28;;;18.50;99.90;;;17.66;100.00;100657.44;4136164;28;20050;-68
2021/06/27 06:51:08;;;;;;;6.32;2.53;;;18.60;99.90;;;17.80;100.00;100652.94;4135488;28;20128;-68
2021/06/27 06:53:09;;;;;;;8.13;3.03;;;18.70;99.90;;;17.75;100.00;100661.53;4136625;28;20022;-68
2021/06/27 06:55:11;;;;;;;4.93;2.67;;;18.70;99.90;;;17.70;99.16;100650.66;4136454;28;20390;-68
2021/06/27 06:57:12;;;;;;;2.95;2.22;;;18.70;99.90;;;17.64;100.00;100660.31;4135263;28;20034;-67
2021/06/27 06:59:13;;;;;;;3.50;3.17;;;18.60;99.90;;;17.46;100.00;100648.56;4136503;28;20029;-68
2021/06/27 07:01:16;;;;;;;5.50;2.88;;;18.50;99.90;;;17.38;100.00;100662.09;4136479;28;20050;-67
2021/06/27 07:03:17;;;;;;;3.65;2.47;;;18.30;99.90;;;17.26;100.00;100656.53;4136188;28;20033;-68
2021/06/27 07:05:18;;;;;;;5.22;2.22;;;18.10;99.90;;;17.22;100.00;100652.63;4135201;28;20030;-67
2021/06/27 07:07:19;;;;;;;2.55;2.05;;;18.10;99.90;;;17.12;100.00;100641.50;4135006;28;20577;-67
2021/06/27 07:09:20;;;;;;;3.95;2.50;;;18.00;99.90;;;17.23;100.00;100664.94;4135310;28;20074;-67
2021/06/27 07:11:20;;;;;;;5.95;2.67;;;18.00;99.90;;;17.21;100.00;100664.28;4136399;28;20027;-68
2021/06/27 07:13:22;;;;;;;2.53;2.10;;;18.00;99.90;;;17.11;100.00;100664.66;4136294;28;20033;-68
2021/06/27 07:15:23;;;;;;;2.90;2.22;;;17.90;99.90;;;17.14;100.00;100668.78;4135020;28;20022;-68
2021/06/27 07:17:24;;;;;;;2.70;2.20;;;17.90;99.90;;;17.22;100.00;100667.78;4151124;28;20141;-68
2021/06/27 07:19:25;;;;;;;4.78;1.95;;;17.90;99.90;;;17.20;100.00;100667.16;4135198;28;20048;-68
2021/06/27 07:21:29;;;;;;;5.47;2.08;;;18.00;99.90;;;17.29;100.00;100669.47;4134875;28;20066;-68
2021/06/27 07:23:31;;;;;;;5.00;2.90;;;18.00;99.90;;;17.45;100.00;100673.56;4151077;28;20032;-68
2021/06/27 07:25:32;;;;;;;3.95;3.42;;;18.10;99.90;;;17.47;100.00;100672.34;4136037;28;20118;-68
2021/06/27 07:27:33;;;;;;;4.18;2.55;;;18.30;99.90;;;17.52;100.00;100677.09;4118668;28;20034;-68
2021/06/27 07:29:34;;;;;;;4.03;2.97;;;18.30;99.90;;;17.57;100.00;100664.81;4135945;28;20026;-68
2021/06/27 07:31:35;;;;;;;5.40;3.33;;;18.40;99.90;;;17.57;100.00;100662.16;4135730;28;20053;-68
2021/06/27 07:33:37;;;;;;;8.32;3.80;;;18.50;99.90;;;17.51;100.00;100649.59;4135676;28;20030;-68
2021/06/27 07:35:38;;;;;;;3.97;3.13;;;18.40;99.90;;;17.63;100.00;100658.66;4134814;28;20122;-68
2021/06/27 07:37:39;;;;;;;5.07;3.25;;;18.50;99.90;;;17.57;100.00;100654.13;4135973;28;20076;-68
2021/06/27 07:39:40;;;;;;;3.88;2.70;;;18.40;99.90;;;17.55;100.00;100650.88;4135762;28;20164;-68
2021/06/27 07:41:42;;;;;;;5.50;3.35;;;18.50;99.90;;;17.67;100.00;100653.75;4134571;28;20062;-68
2021/06/27 07:43:42;;;;;;;3.58;3.25;;;18.50;99.90;;;17.72;100.00;100650.44;4135785;28;20083;-68
2021/06/27 07:45:44;;;;;;;3.20;2.90;;;18.50;99.90;;;17.72;100.00;100651.28;4134776;28;20034;-68
2021/06/27 07:47:46;;;;;;;9.57;4.05;;;18.60;99.90;;;17.75;100.00;100663.38;4135238;28;20054;-68
2021/06/27 07:49:47;;;;;;;5.40;3.78;;;18.60;99.90;;;17.81;100.00;100657.22;4135829;28;20040;-68
2021/06/27 07:51:47;;;;;;;4.25;3.80;;;18.70;99.90;;;17.87;100.00;100664.41;4135790;28;20022;-68
2021/06/27 07:53:48;;;;;;;5.57;3.58;;;18.70;99.90;;;17.83;100.00;100657.88;4135678;28;20042;-68
2021/06/27 07:55:49;;;;;;;5.90;3.60;;;18.90;99.90;;;17.98;100.00;100653.94;4134497;28;20031;-68
2021/06/27 07:57:50;;;;;;;4.72;3.30;;;19.00;99.90;;;18.17;100.00;100665.63;4134614;28;20045;-67
2021/06/27 07:59:51;;;;;;;4.35;3.80;;;19.20;99.90;;;18.27;100.00;100658.03;4135924;28;20065;-68
2021/06/27 08:01:52;;;;;;;4.20;3.40;;;19.30;99.90;;;18.51;100.00;100669.94;4139545;28;20548;-67
2021/06/27 08:03:53;;;;;;;4.15;2.95;;;19.50;99.90;;;18.45;100.00;100668.06;4140748;28;20536;-68
2021/06/27 08:05:54;;;;;;;3.20;2.90;;;19.70;99.90;;;18.23;99.25;100678.16;4139920;28;20030;-68
2021/06/27 08:07:55;;;;;;;4.32;2.97;;;19.60;99.90;;;18.24;99.66;100679.81;4156114;28;20082;-67
2021/06/27 08:09:56;;;;;;;4.72;3.15;;;19.50;99.90;;;18.21;100.00;100675.72;4139805;28;20034;-68
2021/06/27 08:11:57;;;;;;;3.88;2.83;;;19.40;99.90;;;18.07;100.00;100681.28;4139697;28;20041;-68
2021/06/27 08:13:58;;;;;;;5.88;2.75;;;19.30;99.90;;;18.13;100.00;100680.41;4139869;28;20054;-67
2021/06/27 08:15:59;;;;;;;4.63;3.40;;;19.20;99.90;;;18.04;100.00;100679.00;4139779;28;20032;-67
2021/06/27 08:18:00;;;;;;;8.00;2.28;;;19.10;99.90;;;17.95;99.49;100688.25;4139370;28;20037;-67
2021/06/27 08:20:04;;;;;;;7.20;2.60;;;19.00;99.90;;;18.06;98.60;100680.44;4140809;28;20049;-67